KBLI/BLI METAR and TAF weather

Enter ICAO airport designator
Station Type Date Time Source
KBLI METAR 2019/08/19 00:53 UTC NOAA

KBLI 190053Z 18012G20KT 10SM CLR 19/12 A2985 RMK AO2 SLP113 T01940122


Station Type Date Time Source
KBLI Decoded METAR 2019/08/19 00:53 UTC NOAA

Station name not available
Aug 18, 2019 - 08:53 PM EDT / 2019.08.19 0053 UTC
Wind: from the S (180 degrees) at 14 MPH (12 KT) gusting to 23 MPH (20 KT):0
Visibility: 10 mile(s):0
Sky conditions: clear
Temperature: 66.9 F (19.4 C)
Dew Point: 54.0 F (12.2 C)
Relative Humidity: 63%
Pressure (altimeter): 29.85 in. Hg (1010 hPa)
ob: KBLI 190053Z 18012G20KT 10SM CLR 19/12 A2985 RMK AO2 SLP113 T01940122
cycle: 1

Station Type Date Time Source
KBLI TAF 2019/08/18 18:22 UTC NOAA

TAF KBLI 181720Z 1818/1918 18008KT P6SM OVC020
FM182000 17008KT P6SM SCT030 BKN050
FM190000 17008KT P6SM SCT050
FM191200 17006KT P6SM OVC020

Example: see airport list